Bruk link Alternativ webside om du vil se statistikk,rapport,graf,analyse og mye mer.

Vårt webkamera more information My webcam


webkamera på Randaberg more information webcam on Randaberg


Nedbørsradar  rain snow radar


Besøk vår andre værside:

Alternativ webside

Alternativ mobil

Regnskvett RandabergWebsite of another weatherstation



Ikke nødvendig med spesiell oppmerksomhet.    Det er ingen advarsler

Nære METAR rapporter

   
ENHD - Haugesund
oppdatert: 05-07-2020 17:20
For det meste skyet  
For det meste skyet  
   Vind: VEST 11.8 m/s
Vind: VEST 11.8 m/s
Temperatur: 14°C
Duggpunkt: 10°C
Fuktighet: 77%
Barometer: 988 hPa
Skyer: For det meste skyet
Sikt: More than 10 km
Skydetaljer: få skyer 518.2 m,
Delvis Skyet 975.4 m,
For det meste skyet 1493.5 m
ENHD 051520Z 27023KT 9999 FEW017 SCT032 BKN049 14/10 Q0988
ENZV - Randaberg
oppdatert: 05-07-2020 17:20
For det meste skyet  
For det meste skyet  
   Vind: VEST 9.3 m/s
Vind: VEST 9.3 m/s
Temperatur: 14°C
Duggpunkt: 10°C
Fuktighet: 77%
Barometer: 990 hPa
Skyer: For det meste skyet
Sikt: More than 10 km
Skydetaljer: få skyer 304.8 m,
Delvis Skyet 883.9 m,
For det meste skyet 1341.1 m
ENZV 051520Z 27018KT 9999 FEW010 SCT029 BKN044 14/10 Q0990 RERA RESHRA TEMPO 28020G30KT 3000 SHRA BKN012
ENBR - Bergen
oppdatert: 05-07-2020 17:20
Light Showers, Regn, For det meste skyet  
Light Showers, Regn, For det meste skyet  
   Vind: VEST 3.6 m/s<br />Gust to 3.6 m/s
Vind: VEST 3.6 m/s
Gust to 3.6 m/s
Temperatur: 12°C
Duggpunkt: 12°C
Fuktighet: 100%
Barometer: 985 hPa
Skyer: For det meste skyet
Sikt: More than 10 km
Skydetaljer: få skyer 152.4 m,
Delvis Skyet 274.3 m,
For det meste skyet 487.7 m
ENBR 051520Z 28007G18KT 180V350 9999 -SHRA FEW005 SCT009 BKN016 12/12 Q0985 TEMPO 28018G28KT 3000 SHRA BR BKN008 RMK WIND 1200FT 29019KT
ENCN - Kristiansand
oppdatert: 05-07-2020 17:20
Light Showers, Regn, For det meste skyet  
Light Showers, Regn, For det meste skyet  
   Vind: SV 11.3 m/s<br />Gust to 11.3 m/s
Vind: SV 11.3 m/s
Gust to 11.3 m/s
Temperatur: 15°C
Duggpunkt: 11°C
Fuktighet: 77%
Barometer: 989 hPa
Skyer: For det meste skyet
Sikt: More than 10 km
Skydetaljer: For det meste skyet 548.6 m
ENCN 051520Z 23022G33KT 9999 -SHRA BKN018 15/11 Q0989
ENGM - Oslo
oppdatert: 05-07-2020 17:20
Lett regn, Dis, For det meste skyet  
Lett regn, Dis, For det meste skyet  
   Vind: varierer 2.1 m/s
Vind: varierer 2.1 m/s
Temperatur: 14°C
Duggpunkt: 14°C
Fuktighet: 100%
Barometer: 983 hPa
Skyer: For det meste skyet
Sikt: More than 10 km
Skydetaljer: få skyer 152.4 m,
For det meste skyet 365.8 m
ENGM 051520Z VRB04KT 9999 5000N -RA BR FEW005 BKN012 14/14 Q0983 TEMPO 4000 SHRA BKN008 FEW020CB
ENVA - Trondheim
oppdatert: 05-07-2020 17:20
Klart  
Klart  
   Vind: SØ 7.2 m/s
Vind: SØ 7.2 m/s
Temperatur: 19°C
Duggpunkt: 4°C
Fuktighet: 37%
Barometer: 987 hPa
Sikt: More than 10 km
Skydetaljer: Klart
ENVA 051520Z 14014KT CAVOK 19/04 Q0987 RMK WIND 670FT 15024KT

Script utviklet av  Saratoga-weather.org Tilrettelagt for malen av  Weerstation Leuven

Du finner vår vær info også på:

European Weather Network

WeatherCloud

Weather Underground

Citizen Weather Observer Program (CWOP)

Utstyr vi bruker:

Værstsjon
Oregon scientific WMR 300

Værprogram
Meteobridge

Oregon scientific WMR 300

Meteobridge